TimeEDT,TemperatureF,Dew PointF,Humidity,Sea Level PressureIn,VisibilityMPH,Wind Direction,Wind SpeedMPH,Gust SpeedMPH,PrecipitationIn,Events,Conditions,WindDirDegrees,DateUTC
12:53 AM,72.0,64.9,78,29.81,7.0,South,5.8,-,N/A,,Partly Cloudy,190,2013-08-31 04:53:00
1:53 AM,72.0,64.9,78,29.82,7.0,Variable,3.5,-,N/A,,Clear,0,2013-08-31 05:53:00
2:53 AM,70.0,64.9,84,29.80,6.0,SSW,8.1,-,0.00,,Haze,200,2013-08-31 06:53:00
3:53 AM,71.1,66.0,84,29.80,6.0,Variable,6.9,-,N/A,,Haze,0,2013-08-31 07:53:00
4:53 AM,69.1,66.0,90,29.81,4.0,South,3.5,-,N/A,,Clear,190,2013-08-31 08:53:00
5:53 AM,69.1,66.0,90,29.79,4.0,SSW,4.6,-,N/A,,Clear,200,2013-08-31 09:53:00
6:53 AM,69.1,64.9,87,29.80,3.0,SSW,4.6,-,N/A,,Mostly Cloudy,200,2013-08-31 10:53:00
7:53 AM,69.1,64.9,87,29.82,4.0,Variable,3.5,-,N/A,,Overcast,0,2013-08-31 11:53:00
8:38 AM,71.1,66.0,84,29.88,4.0,SSW,6.9,-,N/A,,Haze,200,2013-08-31 12:38:00
8:53 AM,71.1,66.0,84,29.83,4.0,SW,6.9,-,N/A,,Haze,220,2013-08-31 12:53:00
9:53 AM,72.0,66.0,81,29.85,5.0,WSW,5.8,-,N/A,,Haze,240,2013-08-31 13:53:00
10:12 AM,73.0,66.0,79,29.89,5.0,WSW,4.6,-,N/A,,Haze,240,2013-08-31 14:12:00
10:36 AM,75.0,66.0,73,29.89,6.0,Variable,4.6,-,N/A,,Haze,0,2013-08-31 14:36:00
10:49 AM,75.2,66.2,73,29.89,6.0,West,8.1,-,N/A,,Haze,260,2013-08-31 14:49:00
10:53 AM,75.9,66.0,71,29.84,6.0,West,9.2,-,N/A,,Haze,260,2013-08-31 14:53:00
11:53 AM,78.1,66.0,66,29.83,7.0,WSW,8.1,-,N/A,,Mostly Cloudy,240,2013-08-31 15:53:00
12:53 PM,79.0,66.0,64,29.82,7.0,WNW,8.1,-,N/A,,Overcast,290,2013-08-31 16:53:00
1:18 PM,80.1,66.0,62,29.87,8.0,WNW,10.4,-,N/A,,Scattered Clouds,290,2013-08-31 17:18:00
1:53 PM,81.0,66.9,62,29.81,8.0,NNW,6.9,-,N/A,,Scattered Clouds,330,2013-08-31 17:53:00
2:53 PM,81.0,66.0,60,29.79,8.0,NNW,9.2,-,N/A,,Scattered Clouds,340,2013-08-31 18:53:00
3:53 PM,82.0,66.0,58,29.78,8.0,WNW,9.2,-,N/A,,Scattered Clouds,290,2013-08-31 19:53:00
4:53 PM,81.0,66.9,62,29.79,7.0,WNW,12.7,-,N/A,,Scattered Clouds,290,2013-08-31 20:53:00
5:53 PM,79.0,64.9,62,29.79,9.0,NW,13.8,-,N/A,,Scattered Clouds,320,2013-08-31 21:53:00
6:53 PM,75.9,64.9,69,29.80,9.0,NNW,8.1,-,N/A,,Scattered Clouds,340,2013-08-31 22:53:00
7:53 PM,73.9,66.0,76,29.82,10.0,NNW,5.8,-,N/A,,Mostly Cloudy,340,2013-08-31 23:53:00
8:53 PM,71.1,64.0,78,29.85,10.0,Calm,Calm,-,N/A,,Clear,0,2013-09-01 00:53:00
9:53 PM,69.1,64.9,87,29.86,9.0,Calm,Calm,-,N/A,,Mostly Cloudy,0,2013-09-01 01:53:00
10:53 PM,70.0,66.0,87,29.86,9.0,SSE,3.5,-,N/A,,Mostly Cloudy,150,2013-09-01 02:53:00
11:53 PM,66.0,64.0,93,29.86,4.0,Calm,Calm,-,N/A,,Scattered Clouds,0,2013-09-01 03:53:00